Time;durP1;ratioP1;P1;durP2;ratioP2;P2;SDS_P1;SDS_P2;PMS_P1;PMS_P2;Temp;Humidity;BMP_temperature;BMP_pressure;BME280_temperature;BME280_humidity;BME280_pressure;Samples;Min_cycle;Max_cycle;Signal;HPM_P1;HPM_P2
2022/06/06 00:00:44;;;;;;;5.78;4.65;;;;;;;;;;5016165;28;20414;-77
2022/06/06 00:03:10;;;;;;;6.68;4.72;;;;;;;;;;5016027;28;20018;-77
2022/06/06 00:05:36;;;;;;;5.88;4.70;;;;;;;;;;5016104;28;20032;-76
2022/06/06 00:08:03;;;;;;;7.75;4.63;;;;;;;;;;5016085;28;20044;-76
2022/06/06 00:10:28;;;;;;;7.38;4.70;;;;;;;;;;4998395;28;20053;-77
2022/06/06 00:12:53;;;;;;;5.55;4.80;;;;;;;;;;5016197;28;20476;-77
2022/06/06 00:15:19;;;;;;;7.77;4.90;;;;;;;;;;5016066;28;20022;-75
2022/06/06 00:17:44;;;;;;;8.73;4.82;;;;;;;;;;5015837;28;20270;-76
2022/06/06 00:20:10;;;;;;;5.50;4.70;;;;;;;;;;5015975;28;20522;-76
2022/06/06 00:22:35;;;;;;;9.20;4.97;;;;;;;;;;5015721;28;20109;-76
2022/06/06 00:25:01;;;;;;;9.20;5.03;;;;;;;;;;4998183;28;20065;-75
2022/06/06 00:27:26;;;;;;;5.63;5.03;;;;;;;;;;5015759;28;20263;-76
2022/06/06 00:29:53;;;;;;;5.47;4.77;;;;;;;;;;5015908;28;20356;-77
2022/06/06 00:35:05;;;;;;;;;;;;;;;;;;5016291;28;20096;-77
2022/06/06 00:37:33;;;;;;;5.35;4.85;;;;;;;;;;4997930;28;19932;-76
2022/06/06 00:40:00;;;;;;;7.13;5.38;;;;;;;;;;5015748;28;20053;-77
2022/06/06 00:42:35;;;;;;;5.88;4.88;;;;;;;;;;5015407;28;20407;-76
2022/06/06 00:45:23;;;;;;;5.50;5.00;;;;;;;;;;5015367;28;20022;-76
2022/06/06 00:47:55;;;;;;;5.35;4.85;;;;;;;;;;5015204;28;20617;-75
2022/06/06 00:50:50;;;;;;;6.40;5.25;;;;;;;;;;5015754;28;20430;-76
2022/06/06 00:53:20;;;;;;;7.43;4.68;;;;;;;;;;5006903;28;20038;-76
2022/06/06 00:55:50;;;;;;;5.97;4.70;;;;;;;;;;5015231;28;20453;-77
2022/06/06 00:58:20;;;;;;;5.65;5.13;;;;;;;;;;5015375;28;20026;-76
2022/06/06 01:00:47;;;;;;;6.05;4.57;;;;;;;;;;5015469;28;20061;-76
2022/06/06 01:03:15;;;;;;;5.88;4.70;;;;;;;;;;5014933;28;20033;-76
2022/06/06 01:05:43;;;;;;;5.07;4.57;;;;;;;;;;5015242;28;20026;-77
2022/06/06 01:08:10;;;;;;;5.50;4.47;;;;;;;;;;4997308;28;20080;-76
2022/06/06 01:10:35;;;;;;;5.65;4.63;;;;;;;;;;4997394;28;20026;-76
2022/06/06 01:13:03;;;;;;;7.18;4.13;;;;;;;;;;5014875;28;20026;-76
2022/06/06 01:15:37;;;;;;;7.13;3.83;;;;;;;;;;5014655;28;20021;-75
2022/06/06 01:18:19;;;;;;;8.25;4.00;;;;;;;;;;5015047;28;20060;-76
2022/06/06 01:21:05;;;;;;;3.72;3.42;;;;;;;;;;5014996;28;20030;-77
2022/06/06 01:23:54;;;;;;;4.78;3.63;;;;;;;;;;5014817;28;20025;-77
2022/06/06 01:26:36;;;;;;;4.10;3.60;;;;;;;;;;5014846;28;20032;-76
2022/06/06 01:29:11;;;;;;;4.43;3.70;;;;;;;;;;5014874;28;20029;-75
2022/06/06 01:31:48;;;;;;;8.05;3.65;;;;;;;;;;5014575;28;20026;-77
2022/06/06 01:34:21;;;;;;;8.88;3.30;;;;;;;;;;4996699;28;20026;-76
2022/06/06 01:36:51;;;;;;;4.32;3.20;;;;;;;;;;5014360;28;20032;-76
2022/06/06 01:39:17;;;;;;;4.50;2.90;;;;;;;;;;5014324;28;20026;-76
2022/06/06 01:42:00;;;;;;;4.82;2.75;;;;;;;;;;5014331;28;20022;-77
2022/06/06 01:44:40;;;;;;;4.80;2.50;;;;;;;;;;5014245;28;20575;-77
2022/06/06 01:47:09;;;;;;;4.75;2.70;;;;;;;;;;5014339;28;20080;-77
2022/06/06 01:49:35;;;;;;;5.65;2.47;;;;;;;;;;5014499;28;20033;-76
2022/06/06 01:52:05;;;;;;;5.10;2.30;;;;;;;;;;4996423;28;20048;-75
2022/06/06 01:54:30;;;;;;;3.10;2.17;;;;;;;;;;5013934;28;20057;-76
2022/06/06 01:56:58;;;;;;;4.05;2.20;;;;;;;;;;5014351;28;20045;-76
2022/06/06 01:59:24;;;;;;;3.10;2.15;;;;;;;;;;5014217;28;20083;-75
2022/06/06 02:01:49;;;;;;;5.13;2.10;;;;;;;;;;5014003;28;20489;-75
2022/06/06 02:04:14;;;;;;;3.13;2.20;;;;;;;;;;5013860;28;20566;-76
2022/06/06 02:06:40;;;;;;;2.77;2.20;;;;;;;;;;5013861;28;20159;-76
2022/06/06 02:09:05;;;;;;;3.45;2.00;;;;;;;;;;5013708;28;20370;-76
2022/06/06 02:11:30;;;;;;;3.73;2.00;;;;;;;;;;5013750;28;20018;-76
2022/06/06 02:13:56;;;;;;;2.60;1.90;;;;;;;;;;4996443;28;20606;-76
2022/06/06 02:16:21;;;;;;;3.10;2.00;;;;;;;;;;4996093;28;20633;-75
2022/06/06 02:18:46;;;;;;;2.95;1.83;;;;;;;;;;5013617;28;20593;-75
2022/06/06 02:21:11;;;;;;;2.43;1.80;;;;;;;;;;4995913;28;20029;-76
2022/06/06 02:23:37;;;;;;;4.22;2.10;;;;;;;;;;5013916;28;20268;-77
2022/06/06 02:26:02;;;;;;;2.97;2.00;;;;;;;;;;4995924;28;20017;-76
2022/06/06 02:28:28;;;;;;;4.25;1.95;;;;;;;;;;5013796;28;20535;-75
2022/06/06 02:30:53;;;;;;;2.05;1.55;;;;;;;;;;5013540;28;20052;-76
2022/06/06 02:33:19;;;;;;;2.38;1.80;;;;;;;;;;5013362;28;20044;-76
2022/06/06 02:35:44;;;;;;;2.15;1.73;;;;;;;;;;5013654;28;20029;-75
2022/06/06 02:38:11;;;;;;;3.25;2.17;;;;;;;;;;5013703;28;20053;-75
2022/06/06 02:40:36;;;;;;;2.20;2.00;;;;;;;;;;5013387;28;20498;-76
2022/06/06 02:43:02;;;;;;;2.22;2.03;;;;;;;;;;5013102;28;20105;-76
2022/06/06 02:45:28;;;;;;;2.15;1.85;;;;;;;;;;5011946;28;20031;-76
2022/06/06 02:47:55;;;;;;;4.20;2.10;;;;;;;;;;5013633;28;20368;-75
2022/06/06 02:50:25;;;;;;;2.75;2.00;;;;;;;;;;4995689;28;20084;-76
2022/06/06 02:52:50;;;;;;;3.78;2.00;;;;;;;;;;4995593;28;20026;-76
2022/06/06 02:55:16;;;;;;;2.45;1.80;;;;;;;;;;5015314;28;20053;-76
2022/06/06 02:57:47;;;;;;;3.05;2.00;;;;;;;;;;5017889;28;20513;-76
2022/06/06 03:00:19;;;;;;;2.00;1.80;;;;;;;;;;5017642;28;20029;-75
2022/06/06 03:02:44;;;;;;;3.97;2.10;;;;;;;;;;5017255;28;20096;-76
2022/06/06 03:05:09;;;;;;;3.33;2.10;;;;;;;;;;4999487;28;20078;-76
2022/06/06 03:07:53;;;;;;;6.47;1.83;;;;;;;;;;5017109;28;20034;-78
2022/06/06 03:10:30;;;;;;;;;;;;;;;;;;4999948;28;20029;-76
2022/06/06 03:13:24;;;;;;;3.83;2.08;;;;;;;;;;4999448;28;19913;-75
2022/06/06 03:22:20;;;;;;;4.57;2.10;;;;;;;;;;5017058;28;20069;-76
2022/06/06 03:25:01;;;;;;;2.85;2.13;;;;;;;;;;5017096;28;20501;-75
2022/06/06 03:27:45;;;;;;;3.80;2.50;;;;;;;;;;4999250;28;20037;-76
2022/06/06 03:30:29;;;;;;;;;;;;;;;;;;5017298;28;20499;-77
2022/06/06 03:33:20;;;;;;;4.68;2.55;;;;;;;;;;5016814;28;19917;-76
2022/06/06 03:36:09;;;;;;;4.00;2.47;;;;;;;;;;4966748;28;20042;-75
2022/06/06 03:39:09;;;;;;;5.32;2.55;;;;;;;;;;5017068;28;20028;-75
2022/06/06 03:41:51;;;;;;;4.65;2.45;;;;;;;;;;5015695;28;20065;-75
2022/06/06 03:44:25;;;;;;;4.97;2.28;;;;;;;;;;5017104;28;20030;-76
2022/06/06 03:46:58;;;;;;;8.65;2.55;;;;;;;;;;5016591;28;20037;-76
2022/06/06 03:49:26;;;;;;;4.45;2.83;;;;;;;;;;4999036;28;20022;-76
2022/06/06 03:52:16;;;;;;;3.92;2.67;;;;;;;;;;4998641;28;20120;-76
2022/06/06 03:54:42;;;;;;;4.10;2.28;;;;;;;;;;5016172;28;20463;-76
2022/06/06 03:57:23;;;;;;;3.13;2.70;;;;;;;;;;5016600;28;20036;-77
2022/06/06 04:00:00;;;;;;;6.45;3.00;;;;;;;;;;5016251;28;20255;-75
2022/06/06 04:02:31;;;;;;;4.80;2.65;;;;;;;;;;5016223;28;20083;-76
2022/06/06 04:04:59;;;;;;;4.45;2.70;;;;;;;;;;5016468;28;20034;-76
2022/06/06 04:07:25;;;;;;;5.88;2.78;;;;;;;;;;5014970;28;20111;-76
2022/06/06 04:09:52;;;;;;;4.17;2.47;;;;;;;;;;5016084;28;20053;-75
2022/06/06 04:12:33;;;;;;;3.97;2.58;;;;;;;;;;4998406;28;20263;-76
2022/06/06 04:15:22;;;;;;;4.15;2.70;;;;;;;;;;5016149;28;20030;-75
2022/06/06 04:18:22;;;;;;;3.30;2.47;;;;;;;;;;5015963;28;20018;-75
2022/06/06 04:21:01;;;;;;;2.80;2.55;;;;;;;;;;5016095;28;20022;-76
2022/06/06 04:23:38;;;;;;;4.25;3.50;;;;;;;;;;5015733;28;20167;-76
2022/06/06 04:26:24;;;;;;;6.90;2.92;;;;;;;;;;5015844;28;20372;-76
2022/06/06 04:29:11;;;;;;;5.60;2.70;;;;;;;;;;5015727;28;20034;-76
2022/06/06 04:31:51;;;;;;;4.13;2.75;;;;;;;;;;5015687;28;20465;-76
2022/06/06 04:34:23;;;;;;;3.75;2.83;;;;;;;;;;5015892;28;20037;-76
2022/06/06 04:37:06;;;;;;;4.00;2.63;;;;;;;;;;4998001;28;20071;-76
2022/06/06 04:39:53;;;;;;;5.90;2.88;;;;;;;;;;5015736;28;20034;-74
2022/06/06 04:42:43;;;;;;;4.18;2.63;;;;;;;;;;5015294;28;20017;-77
2022/06/06 04:45:39;;;;;;;3.75;2.60;;;;;;;;;;5015945;28;20022;-75
2022/06/06 04:48:05;;;;;;;5.32;2.45;;;;;;;;;;5015605;28;20030;-75
2022/06/06 04:50:32;;;;;;;6.47;2.70;;;;;;;;;;5015519;28;20029;-77
2022/06/06 04:53:08;;;;;;;3.20;2.50;;;;;;;;;;5015209;28;20028;-76
2022/06/06 04:55:33;;;;;;;2.90;2.28;;;;;;;;;;5015074;28;20032;-77
2022/06/06 04:58:02;;;;;;;2.95;2.15;;;;;;;;;;5015537;28;20022;-76
2022/06/06 05:00:33;;;;;;;3.22;2.38;;;;;;;;;;5015224;28;20113;-76
2022/06/06 05:02:58;;;;;;;5.65;2.65;;;;;;;;;;5014933;28;20490;-75
2022/06/06 05:05:30;;;;;;;3.00;2.70;;;;;;;;;;5015245;28;20030;-76
2022/06/06 05:08:06;;;;;;;5.07;2.50;;;;;;;;;;5015492;28;20290;-75
2022/06/06 05:10:46;;;;;;;2.97;2.25;;;;;;;;;;5014903;28;20078;-77
2022/06/06 05:13:22;;;;;;;2.90;2.13;;;;;;;;;;5014890;28;20018;-76
2022/06/06 05:16:17;;;;;;;5.03;2.40;;;;;;;;;;4997243;28;20030;-76
2022/06/06 05:19:13;;;;;;;2.95;2.20;;;;;;;;;;5014696;28;20224;-76
2022/06/06 05:21:57;;;;;;;3.58;2.50;;;;;;;;;;4997082;28;20018;-76
2022/06/06 05:24:47;;;;;;;3.65;2.38;;;;;;;;;;5014674;28;20483;-77
2022/06/06 05:27:47;;;;;;;2.50;2.10;;;;;;;;;;4997022;28;20045;-76
2022/06/06 05:30:47;;;;;;;2.75;2.30;;;;;;;;;;5014839;28;20033;-76
2022/06/06 05:33:33;;;;;;;3.75;2.17;;;;;;;;;;4996781;28;20021;-76
2022/06/06 05:36:30;;;;;;;3.75;2.22;;;;;;;;;;4996823;28;20438;-76
2022/06/06 05:39:20;;;;;;;3.55;2.50;;;;;;;;;;5014412;28;20022;-75
2022/06/06 05:42:03;;;;;;;6.00;2.38;;;;;;;;;;5014523;28;20046;-76
2022/06/06 05:45:02;;;;;;;3.88;2.60;;;;;;;;;;5015622;28;20018;-76
2022/06/06 05:47:52;;;;;;;2.85;2.42;;;;;;;;;;5015858;28;20033;-76
2022/06/06 05:50:29;;;;;;;3.42;2.45;;;;;;;;;;5015756;28;20026;-76
2022/06/06 05:53:31;;;;;;;3.58;2.40;;;;;;;;;;4997699;28;20049;-75
2022/06/06 05:56:29;;;;;;;3.60;2.17;;;;;;;;;;5016135;28;20026;-76
2022/06/06 05:59:09;;;;;;;2.35;2.10;;;;;;;;;;5015719;28;20033;-76
2022/06/06 06:02:11;;;;;;;2.58;2.10;;;;;;;;;;5015459;28;20022;-75
2022/06/06 06:05:14;;;;;;;2.38;1.80;;;;;;;;;;4998651;28;20025;-74
2022/06/06 06:08:01;;;;;;;2.25;1.95;;;;;;;;;;5015972;28;20030;-75
2022/06/06 06:10:52;;;;;;;5.00;2.05;;;;;;;;;;5015626;28;20030;-76
2022/06/06 06:13:55;;;;;;;3.72;1.88;;;;;;;;;;5014037;28;20036;-75
2022/06/06 06:16:22;;;;;;;2.20;1.88;;;;;;;;;;5013855;28;20030;-75
2022/06/06 06:18:54;;;;;;;2.10;1.80;;;;;;;;;;5013902;28;20025;-76
2022/06/06 06:21:24;;;;;;;4.03;2.05;;;;;;;;;;5013810;28;20079;-76
2022/06/06 06:23:56;;;;;;;5.15;1.50;;;;;;;;;;5014105;28;20034;-76
2022/06/06 06:26:22;;;;;;;3.28;1.60;;;;;;;;;;5013746;28;20022;-76
2022/06/06 06:28:49;;;;;;;1.58;1.48;;;;;;;;;;5012971;28;20506;-76
2022/06/06 06:31:26;;;;;;;1.55;1.30;;;;;;;;;;5013158;28;20025;-76
2022/06/06 06:33:54;;;;;;;1.98;1.50;;;;;;;;;;5013490;28;20505;-76
2022/06/06 06:36:43;;;;;;;1.42;1.20;;;;;;;;;;5013425;28;20030;-76
2022/06/06 06:39:42;;;;;;;3.90;1.50;;;;;;;;;;5013520;28;20029;-76
2022/06/06 06:42:18;;;;;;;3.03;1.60;;;;;;;;;;5013483;28;20061;-76
2022/06/06 06:44:53;;;;;;;1.30;1.20;;;;;;;;;;5013567;28;20014;-75
2022/06/06 06:47:22;;;;;;;2.35;1.50;;;;;;;;;;5013488;28;20108;-77
2022/06/06 06:49:57;;;;;;;1.75;1.20;;;;;;;;;;5013270;28;20022;-77
2022/06/06 06:52:42;;;;;;;3.78;1.48;;;;;;;;;;5013298;28;20450;-76
2022/06/06 06:55:24;;;;;;;1.65;1.20;;;;;;;;;;4995523;28;20095;-76
2022/06/06 06:58:15;;;;;;;3.13;1.38;;;;;;;;;;5013711;28;20025;-76
2022/06/06 07:00:52;;;;;;;2.22;1.30;;;;;;;;;;5013526;28;20065;-76
2022/06/06 07:09:27;;;;;;;1.63;1.20;;;;;;;;;;5013088;28;20119;-76
2022/06/06 07:12:32;;;;;;;1.30;1.20;;;;;;;;;;5013080;28;20561;-76
2022/06/06 07:15:20;;;;;;;1.83;1.20;;;;;;;;;;5013430;28;20041;-75
2022/06/06 07:17:49;;;;;;;1.63;1.15;;;;;;;;;;5012976;28;20037;-75
2022/06/06 07:20:17;;;;;;;1.40;1.20;;;;;;;;;;5013196;28;20037;-75
2022/06/06 07:23:02;;;;;;;1.30;1.20;;;;;;;;;;5012895;28;20022;-75
2022/06/06 07:25:38;;;;;;;1.95;1.20;;;;;;;;;;4995270;28;20097;-76
2022/06/06 07:28:13;;;;;;;2.85;1.27;;;;;;;;;;5013260;28;20022;-76
2022/06/06 07:30:47;;;;;;;3.10;1.20;;;;;;;;;;4995211;28;20018;-77
2022/06/06 07:33:25;;;;;;;2.45;1.33;;;;;;;;;;4995132;28;20117;-77
2022/06/06 07:36:01;;;;;;;1.25;1.15;;;;;;;;;;5012739;28;20029;-75
2022/06/06 07:39:02;;;;;;;1.63;1.20;;;;;;;;;;5012993;28;20118;-75
2022/06/06 07:42:03;;;;;;;1.80;1.40;;;;;;;;;;5015201;28;20013;-75
2022/06/06 07:45:03;;;;;;;1.98;1.13;;;;;;;;;;4998779;28;20044;-76
2022/06/06 07:47:51;;;;;;;3.25;1.25;;;;;;;;;;5016380;28;20514;-76
2022/06/06 07:50:24;;;;;;;1.58;1.10;;;;;;;;;;5016647;28;20022;-77
2022/06/06 07:53:05;;;;;;;1.87;1.20;;;;;;;;;;5016261;28;20109;-76
2022/06/06 07:55:38;;;;;;;1.52;1.30;;;;;;;;;;5016135;28;20064;-76
2022/06/06 07:58:18;;;;;;;2.28;1.20;;;;;;;;;;5016387;28;20201;-76
2022/06/06 08:00:52;;;;;;;1.52;1.30;;;;;;;;;;5016364;28;20061;-76
2022/06/06 08:03:49;;;;;;;2.38;1.30;;;;;;;;;;4998100;28;20555;-75
2022/06/06 08:06:43;;;;;;;2.08;1.20;;;;;;;;;;5016261;28;20030;-76
2022/06/06 08:09:29;;;;;;;1.73;1.35;;;;;;;;;;5016266;28;20026;-76
2022/06/06 08:12:19;;;;;;;2.75;1.38;;;;;;;;;;5016106;28;20376;-75
2022/06/06 08:15:03;;;;;;;1.75;1.40;;;;;;;;;;5015992;28;20030;-75
2022/06/06 08:17:43;;;;;;;3.00;1.38;;;;;;;;;;5016061;28;20068;-75
2022/06/06 08:20:21;;;;;;;1.52;1.35;;;;;;;;;;5016024;28;20022;-76
2022/06/06 08:22:46;;;;;;;4.55;1.40;;;;;;;;;;4997855;28;20034;-76
2022/06/06 08:25:14;;;;;;;2.15;1.40;;;;;;;;;;4998521;28;20479;-75
2022/06/06 08:27:47;;;;;;;1.58;1.10;;;;;;;;;;4998268;28;20060;-76
2022/06/06 08:30:14;;;;;;;2.20;1.38;;;;;;;;;;5015845;28;20029;-76
2022/06/06 08:32:39;;;;;;;2.50;1.23;;;;;;;;;;5015355;28;20057;-77
2022/06/06 08:35:04;;;;;;;1.63;1.30;;;;;;;;;;5015462;28;20057;-76
2022/06/06 08:37:53;;;;;;;1.77;1.30;;;;;;;;;;5015392;28;20267;-76
2022/06/06 08:40:34;;;;;;;3.10;1.35;;;;;;;;;;5015936;28;20072;-76
2022/06/06 08:43:03;;;;;;;2.20;1.30;;;;;;;;;;5015562;28;20017;-74
2022/06/06 08:45:48;;;;;;;1.60;1.30;;;;;;;;;;5015751;28;20475;-76
2022/06/06 08:48:32;;;;;;;2.08;1.35;;;;;;;;;;5015528;28;20425;-76
2022/06/06 08:51:11;;;;;;;2.20;1.30;;;;;;;;;;5015270;28;20045;-76
2022/06/06 08:54:20;;;;;;;1.75;1.30;;;;;;;;;;5014276;28;20029;-76
2022/06/06 08:57:09;;;;;;;2.38;1.40;;;;;;;;;;5015328;28;20427;-76
2022/06/06 09:00:05;;;;;;;1.50;1.20;;;;;;;;;;5014959;28;20030;-76
2022/06/06 09:03:00;;;;;;;2.72;1.40;;;;;;;;;;5015430;28;20549;-76
2022/06/06 09:05:51;;;;;;;2.05;1.35;;;;;;;;;;4997657;28;20022;-76
2022/06/06 09:08:41;;;;;;;2.58;1.33;;;;;;;;;;4977770;28;20041;-76
2022/06/06 09:11:35;;;;;;;1.95;1.35;;;;;;;;;;5014929;28;20037;-75
2022/06/06 09:14:18;;;;;;;1.85;1.27;;;;;;;;;;5015192;28;20414;-76
2022/06/06 09:17:02;;;;;;;1.65;1.30;;;;;;;;;;5014807;28;20033;-76
2022/06/06 09:19:57;;;;;;;3.33;1.45;;;;;;;;;;4997365;28;20026;-75
2022/06/06 09:22:44;;;;;;;1.38;1.27;;;;;;;;;;5014899;28;20032;-76
2022/06/06 09:25:17;;;;;;;1.67;1.40;;;;;;;;;;5015289;28;20382;-77
2022/06/06 09:28:19;;;;;;;3.10;1.52;;;;;;;;;;5015003;28;20026;-76
2022/06/06 09:31:20;;;;;;;1.48;1.23;;;;;;;;;;4996892;28;20030;-76
2022/06/06 09:34:27;;;;;;;1.38;1.27;;;;;;;;;;5014358;28;20491;-76
2022/06/06 09:37:26;;;;;;;1.48;1.30;;;;;;;;;;5014881;28;20034;-77
2022/06/06 09:39:57;;;;;;;2.45;1.30;;;;;;;;;;5014332;28;20045;-77
2022/06/06 09:42:43;;;;;;;3.30;1.20;;;;;;;;;;4996615;28;20079;-76
2022/06/06 09:45:47;;;;;;;2.60;1.30;;;;;;;;;;4996551;28;20076;-76
2022/06/06 09:48:38;;;;;;;1.65;1.33;;;;;;;;;;5014295;28;20056;-77
2022/06/06 09:51:43;;;;;;;1.55;1.30;;;;;;;;;;4976619;28;20060;-76
2022/06/06 10:01:21;;;;;;;3.50;1.30;;;;;;;;;;5014564;28;20517;-76
2022/06/06 10:04:20;;;;;;;2.30;1.60;;;;;;;;;;5014220;28;20083;-76
2022/06/06 10:07:03;;;;;;;1.90;1.30;;;;;;;;;;5013860;28;20080;-76
2022/06/06 10:10:02;;;;;;;1.92;1.20;;;;;;;;;;5013720;28;20061;-76
2022/06/06 10:12:59;;;;;;;2.58;1.58;;;;;;;;;;5013868;28;20502;-76
2022/06/06 10:15:52;;;;;;;3.70;1.70;;;;;;;;;;5013703;28;20029;-75
2022/06/06 10:18:41;;;;;;;1.58;1.30;;;;;;;;;;5014420;28;20018;-77
2022/06/06 10:21:33;;;;;;;1.25;1.13;;;;;;;;;;5013714;28;20025;-76
2022/06/06 10:24:37;;;;;;;2.55;1.27;;;;;;;;;;5013572;28;20482;-76
2022/06/06 10:27:19;;;;;;;3.05;1.27;;;;;;;;;;4915135;29;20036;-75
2022/06/06 10:30:13;;;;;;;1.30;1.20;;;;;;;;;;4915879;29;20119;-77
2022/06/06 10:33:02;;;;;;;1.95;1.17;;;;;;;;;;4990955;28;20533;-77
2022/06/06 10:35:34;;;;;;;1.80;1.30;;;;;;;;;;5013708;28;20033;-77
2022/06/06 10:38:15;;;;;;;1.50;1.40;;;;;;;;;;5013492;28;20022;-77
2022/06/06 10:41:00;;;;;;;1.52;1.15;;;;;;;;;;5013543;28;20057;-77
2022/06/06 10:43:44;;;;;;;1.55;1.30;;;;;;;;;;5013504;28;20029;-76
2022/06/06 10:46:17;;;;;;;;;;;;;;;;;;5014298;28;20049;-76
2022/06/06 10:49:10;;;;;;;1.55;1.20;;;;;;;;;;5013385;28;19914;-77
2022/06/06 10:51:40;;;;;;;1.40;1.20;;;;;;;;;;4995732;28;20029;-77
2022/06/06 10:54:21;;;;;;;3.03;1.48;;;;;;;;;;4995736;28;20617;-76
2022/06/06 10:57:05;;;;;;;1.85;1.30;;;;;;;;;;4995708;28;20038;-77
2022/06/06 10:59:52;;;;;;;2.22;1.27;;;;;;;;;;5013253;28;20029;-77
2022/06/06 11:02:26;;;;;;;4.00;1.63;;;;;;;;;;4995602;28;20029;-77
2022/06/06 11:05:36;;;;;;;1.35;1.20;;;;;;;;;;5013422;28;20495;-76
2022/06/06 11:08:21;;;;;;;2.65;1.40;;;;;;;;;;5013146;28;20034;-76
2022/06/06 11:11:08;;;;;;;1.92;1.35;;;;;;;;;;5013075;28;20399;-77
2022/06/06 11:13:54;;;;;;;2.17;1.23;;;;;;;;;;5012890;28;20026;-76
2022/06/06 11:16:19;;;;;;;2.92;1.20;;;;;;;;;;5015094;28;20097;-76
2022/06/06 11:18:53;;;;;;;1.67;1.10;;;;;;;;;;5017018;28;20101;-77
2022/06/06 11:21:48;;;;;;;5.75;1.42;;;;;;;;;;5017113;28;20479;-77
2022/06/06 11:24:18;;;;;;;5.10;1.30;;;;;;;;;;5017024;28;20105;-76
2022/06/06 11:27:08;;;;;;;5.00;1.30;;;;;;;;;;5016800;28;20173;-76
2022/06/06 11:30:11;;;;;;;2.97;1.38;;;;;;;;;;4999231;28;20480;-76
2022/06/06 11:33:04;;;;;;;1.97;1.40;;;;;;;;;;5016619;28;20026;-77
2022/06/06 11:36:05;;;;;;;4.00;1.30;;;;;;;;;;5016733;28;20034;-76
2022/06/06 11:39:02;;;;;;;2.20;1.30;;;;;;;;;;5017096;28;20034;-77
2022/06/06 11:41:55;;;;;;;1.85;1.30;;;;;;;;;;5016741;28;20057;-76
2022/06/06 11:44:48;;;;;;;1.30;1.20;;;;;;;;;;5016843;28;20168;-77
2022/06/06 11:47:33;;;;;;;3.33;1.37;;;;;;;;;;4998859;28;20060;-77
2022/06/06 11:50:18;;;;;;;2.72;1.40;;;;;;;;;;5016844;28;20263;-76
2022/06/06 11:53:08;;;;;;;2.00;1.40;;;;;;;;;;5016573;28;20030;-77
2022/06/06 11:55:51;;;;;;;1.50;1.25;;;;;;;;;;5016418;28;20395;-76
2022/06/06 11:58:47;;;;;;;2.20;1.50;;;;;;;;;;5016832;28;20096;-76
2022/06/06 12:01:42;;;;;;;3.63;1.30;;;;;;;;;;4998541;28;20056;-75
2022/06/06 12:04:17;;;;;;;2.53;1.40;;;;;;;;;;4998683;28;20033;-77
2022/06/06 12:07:08;;;;;;;5.38;1.30;;;;;;;;;;5016088;28;20438;-77
2022/06/06 12:10:02;;;;;;;2.00;1.40;;;;;;;;;;5016052;28;20030;-77
2022/06/06 12:12:58;;;;;;;2.00;1.40;;;;;;;;;;5016238;28;20088;-76
2022/06/06 12:15:54;;;;;;;1.48;1.30;;;;;;;;;;4997566;28;20026;-76
2022/06/06 12:19:05;;;;;;;2.22;1.50;;;;;;;;;;4996814;28;20145;-76
2022/06/06 12:21:54;;;;;;;1.45;1.23;;;;;;;;;;4962551;28;20037;-76
2022/06/06 12:24:30;;;;;;;1.40;1.30;;;;;;;;;;5016234;28;20387;-77
2022/06/06 12:27:19;;;;;;;2.20;1.20;;;;;;;;;;4998160;28;20029;-75
2022/06/06 12:30:12;;;;;;;2.67;1.40;;;;;;;;;;4998613;28;20022;-74
2022/06/06 12:32:55;;;;;;;1.38;1.27;;;;;;;;;;5015576;28;20108;-75
2022/06/06 12:35:39;;;;;;;1.80;1.30;;;;;;;;;;5016429;28;20050;-76
2022/06/06 12:38:24;;;;;;;;;;;;;;;;;;5016187;28;20029;-77
2022/06/06 12:41:15;;;;;;;1.33;1.20;;;;;;;;;;5008042;28;19924;-77
2022/06/06 12:44:01;;;;;;;1.48;1.27;;;;;;;;;;5015589;28;20036;-76
2022/06/06 12:46:38;;;;;;;4.00;1.30;;;;;;;;;;4998034;28;20113;-77
2022/06/06 12:49:27;;;;;;;1.42;1.30;;;;;;;;;;5015672;28;20021;-77
2022/06/06 12:52:20;;;;;;;3.10;1.30;;;;;;;;;;5015657;28;20087;-76
2022/06/06 12:57:51;;;;;;;3.03;1.40;;;;;;;;;;5015639;28;20079;-77
2022/06/06 13:01:37;;;;;;;7.80;1.85;;;;;;;;;;5015134;28;20029;-77
2022/06/06 13:03:22;;;;;;;4.22;1.65;;;;;;;;;;5014667;28;20026;-77
2022/06/06 13:06:07;;;;;;;2.33;1.58;;;;;;;;;;5015288;28;20013;-77
2022/06/06 13:08:42;;;;;;;1.73;1.30;;;;;;;;;;5015187;28;20399;-77
2022/06/06 13:11:37;;;;;;;1.90;1.25;;;;;;;;;;5014784;28;20034;-76
2022/06/06 13:14:34;;;;;;;2.67;1.40;;;;;;;;;;5014916;28;20546;-76
2022/06/06 13:17:08;;;;;;;3.72;1.50;;;;;;;;;;5015002;28;20038;-76
2022/06/06 13:19:51;;;;;;;4.38;1.60;;;;;;;;;;4997254;28;20034;-75
2022/06/06 13:22:29;;;;;;;2.03;1.40;;;;;;;;;;5014722;28;20026;-77
2022/06/06 13:25:06;;;;;;;3.35;2.20;;;;;;;;;;5014741;28;20030;-76
2022/06/06 13:27:56;;;;;;;3.25;1.45;;;;;;;;;;5014505;28;20487;-76
2022/06/06 13:30:23;;;;;;;1.67;1.40;;;;;;;;;;5014668;28;20026;-77
2022/06/06 13:33:09;;;;;;;2.25;1.38;;;;;;;;;;5014290;28;20026;-76
2022/06/06 13:35:56;;;;;;;2.17;1.38;;;;;;;;;;5014411;28;20034;-76
2022/06/06 13:38:27;;;;;;;5.68;1.40;;;;;;;;;;5014563;28;20045;-76
2022/06/06 13:41:27;;;;;;;1.90;1.25;;;;;;;;;;5014730;28;20037;-76
2022/06/06 13:43:59;;;;;;;1.40;1.30;;;;;;;;;;4996677;28;20049;-75
2022/06/06 13:46:38;;;;;;;1.65;1.38;;;;;;;;;;5014655;28;20025;-77
2022/06/06 13:49:22;;;;;;;1.77;1.55;;;;;;;;;;5014187;28;20105;-77
2022/06/06 13:52:19;;;;;;;3.90;1.40;;;;;;;;;;5013958;28;20036;-75
2022/06/06 13:54:44;;;;;;;2.15;1.50;;;;;;;;;;5014274;28;20076;-75
2022/06/06 13:57:21;;;;;;;1.63;1.27;;;;;;;;;;5014252;28;20026;-76
2022/06/06 14:00:02;;;;;;;2.03;1.30;;;;;;;;;;4996685;28;20121;-77
2022/06/06 14:02:57;;;;;;;3.13;1.88;;;;;;;;;;4996230;28;20026;-76
2022/06/06 14:05:44;;;;;;;3.67;1.40;;;;;;;;;;5014381;28;20499;-77
2022/06/06 14:08:15;;;;;;;2.85;1.60;;;;;;;;;;5014131;28;20041;-77
2022/06/06 14:10:57;;;;;;;2.85;1.52;;;;;;;;;;5013862;28;20018;-77
2022/06/06 14:13:32;;;;;;;2.17;1.55;;;;;;;;;;5014092;28;20029;-76
2022/06/06 14:15:58;;;;;;;1.90;1.40;;;;;;;;;;5013884;28;20084;-78
2022/06/06 14:18:34;;;;;;;1.83;1.60;;;;;;;;;;5014073;28;20095;-77
2022/06/06 14:21:01;;;;;;;4.57;1.52;;;;;;;;;;4996174;28;20510;-77
2022/06/06 14:23:35;;;;;;;2.17;1.40;;;;;;;;;;5013608;28;20033;-77
2022/06/06 14:26:13;;;;;;;1.90;1.30;;;;;;;;;;4995973;28;20483;-77
2022/06/06 14:28:43;;;;;;;2.00;1.50;;;;;;;;;;5014135;28;20446;-77
2022/06/06 14:31:33;;;;;;;3.95;1.50;;;;;;;;;;4996746;28;20045;-78
2022/06/06 14:34:16;;;;;;;1.30;1.20;;;;;;;;;;4995819;28;20427;-76
2022/06/06 14:36:43;;;;;;;3.08;1.50;;;;;;;;;;5013967;28;20112;-77
2022/06/06 14:39:21;;;;;;;2.33;1.52;;;;;;;;;;5013823;28;20037;-77
2022/06/06 14:41:48;;;;;;;3.58;1.33;;;;;;;;;;5013583;28;20022;-77
2022/06/06 14:44:14;;;;;;;2.17;1.40;;;;;;;;;;5013929;28;20048;-77
2022/06/06 14:46:45;;;;;;;1.80;1.40;;;;;;;;;;5013372;28;20495;-77
2022/06/06 14:49:10;;;;;;;2.20;1.80;;;;;;;;;;5013603;28;20117;-77
2022/06/06 14:51:41;;;;;;;1.70;1.60;;;;;;;;;;5012700;28;20121;-77
2022/06/06 14:54:09;;;;;;;2.45;1.40;;;;;;;;;;4995727;28;20026;-76
2022/06/06 14:56:45;;;;;;;2.30;1.40;;;;;;;;;;5013082;28;20029;-76
2022/06/06 14:59:14;;;;;;;2.45;1.60;;;;;;;;;;5013747;28;20034;-77
2022/06/06 15:01:41;;;;;;;2.13;1.33;;;;;;;;;;4995696;28;20423;-76
2022/06/06 15:04:27;;;;;;;4.32;2.30;;;;;;;;;;5013408;28;20029;-76
2022/06/06 15:06:58;;;;;;;2.38;1.40;;;;;;;;;;5013450;28;20407;-76
2022/06/06 15:09:52;;;;;;;2.30;1.35;;;;;;;;;;4995449;28;20022;-76
2022/06/06 15:12:24;;;;;;;2.15;1.48;;;;;;;;;;4995524;28;20032;-76
2022/06/06 15:14:58;;;;;;;2.45;1.60;;;;;;;;;;5013644;28;20100;-77
2022/06/06 15:17:26;;;;;;;1.42;1.30;;;;;;;;;;4995472;28;20034;-77
2022/06/06 15:19:55;;;;;;;3.20;1.50;;;;;;;;;;5013266;28;20485;-76
2022/06/06 15:22:28;;;;;;;1.60;1.30;;;;;;;;;;5013237;28;20478;-76
2022/06/06 15:24:54;;;;;;;4.10;1.27;;;;;;;;;;5012799;28;20022;-76
2022/06/06 15:27:52;;;;;;;2.08;1.48;;;;;;;;;;5012853;28;20510;-76
2022/06/06 15:30:23;;;;;;;2.63;1.30;;;;;;;;;;5013350;28;20109;-77
2022/06/06 15:33:04;;;;;;;2.55;1.48;;;;;;;;;;5012670;28;20033;-77
2022/06/06 15:35:35;;;;;;;3.05;1.75;;;;;;;;;;5013045;28;20113;-77
2022/06/06 15:38:00;;;;;;;1.98;1.38;;;;;;;;;;5013328;28;20022;-77
2022/06/06 15:40:40;;;;;;;2.03;1.40;;;;;;;;;;5012901;28;20026;-76
2022/06/06 15:43:14;;;;;;;1.85;1.40;;;;;;;;;;5012751;28;20030;-77
2022/06/06 15:45:58;;;;;;;2.78;1.50;;;;;;;;;;5013107;28;20093;-77
2022/06/06 15:48:38;;;;;;;1.67;1.50;;;;;;;;;;4995236;28;20033;-76
2022/06/06 15:51:22;;;;;;;3.00;1.42;;;;;;;;;;4994997;28;20025;-76
2022/06/06 15:54:05;;;;;;;;;;;;;;;;;;5013171;28;20430;-77
2022/06/06 15:57:11;;;;;;;2.45;1.20;;;;;;;;;;5012996;28;20016;-76
2022/06/06 15:59:55;;;;;;;1.85;1.30;;;;;;;;;;5013053;28;20116;-77
2022/06/06 16:02:41;;;;;;;2.30;1.30;;;;;;;;;;5014055;28;20034;-77
2022/06/06 16:05:18;;;;;;;1.85;1.48;;;;;;;;;;5016014;28;20110;-78
2022/06/06 16:08:14;;;;;;;2.60;1.60;;;;;;;;;;5016269;28;20022;-77
2022/06/06 16:10:53;;;;;;;2.72;1.70;;;;;;;;;;5016128;28;20076;-77
2022/06/06 16:13:56;;;;;;;5.18;1.90;;;;;;;;;;5015860;28;20022;-76
2022/06/06 16:16:32;;;;;;;3.13;1.63;;;;;;;;;;5015731;28;20032;-76
2022/06/06 16:19:24;;;;;;;4.35;1.60;;;;;;;;;;4998345;28;20025;-75
2022/06/06 16:21:54;;;;;;;2.33;1.70;;;;;;;;;;5015969;28;20026;-77
2022/06/06 16:24:44;;;;;;;4.55;1.55;;;;;;;;;;4998022;28;20120;-77
2022/06/06 16:27:18;;;;;;;4.30;2.30;;;;;;;;;;5015855;28;20033;-77